sensor_id;sensor_type;location;lat;lon;timestamp;P1;durP1;ratioP1;P2;durP2;ratioP2
22697;SDS011;11516;51.612;7.510;2023-02-22T00:00:58;51.58;;;27.77;;
22697;SDS011;11516;51.612;7.510;2023-02-22T00:03:31;50.00;;;27.27;;
22697;SDS011;11516;51.612;7.510;2023-02-22T00:05:58;49.92;;;29.15;;
22697;SDS011;11516;51.612;7.510;2023-02-22T00:08:27;49.33;;;26.48;;
22697;SDS011;11516;51.612;7.510;2023-02-22T00:10:58;49.75;;;29.02;;
22697;SDS011;11516;51.612;7.510;2023-02-22T00:13:28;50.47;;;28.63;;
22697;SDS011;11516;51.612;7.510;2023-02-22T00:15:54;47.83;;;28.30;;
22697;SDS011;11516;51.612;7.510;2023-02-22T00:18:21;51.85;;;29.63;;
22697;SDS011;11516;51.612;7.510;2023-02-22T00:20:46;51.22;;;30.05;;
22697;SDS011;11516;51.612;7.510;2023-02-22T00:23:13;57.13;;;30.13;;
22697;SDS011;11516;51.612;7.510;2023-02-22T00:25:43;50.22;;;28.98;;
22697;SDS011;11516;51.612;7.510;2023-02-22T00:28:09;55.50;;;30.80;;
22697;SDS011;11516;51.612;7.510;2023-02-22T00:30:34;55.97;;;31.23;;
22697;SDS011;11516;51.612;7.510;2023-02-22T00:33:00;52.50;;;30.38;;
22697;SDS011;11516;51.612;7.510;2023-02-22T00:35:27;54.88;;;31.02;;
22697;SDS011;11516;51.612;7.510;2023-02-22T00:37:55;53.58;;;31.55;;
22697;SDS011;11516;51.612;7.510;2023-02-22T00:40:24;59.22;;;31.85;;
22697;SDS011;11516;51.612;7.510;2023-02-22T00:42:51;56.38;;;31.52;;
22697;SDS011;11516;51.612;7.510;2023-02-22T00:45:18;53.55;;;30.13;;
22697;SDS011;11516;51.612;7.510;2023-02-22T00:47:46;53.33;;;29.23;;
22697;SDS011;11516;51.612;7.510;2023-02-22T00:50:13;54.90;;;30.35;;
22697;SDS011;11516;51.612;7.510;2023-02-22T00:52:39;54.90;;;30.00;;
22697;SDS011;11516;51.612;7.510;2023-02-22T00:55:06;52.13;;;29.73;;
22697;SDS011;11516;51.612;7.510;2023-02-22T00:57:34;50.50;;;28.23;;
22697;SDS011;11516;51.612;7.510;2023-02-22T01:00:00;53.47;;;30.27;;
22697;SDS011;11516;51.612;7.510;2023-02-22T01:02:35;52.95;;;30.60;;
22697;SDS011;11516;51.612;7.510;2023-02-22T01:05:02;55.65;;;31.17;;
22697;SDS011;11516;51.612;7.510;2023-02-22T01:07:28;54.45;;;30.17;;
22697;SDS011;11516;51.612;7.510;2023-02-22T01:09:54;52.50;;;29.70;;
22697;SDS011;11516;51.612;7.510;2023-02-22T01:12:19;55.93;;;30.57;;
22697;SDS011;11516;51.612;7.510;2023-02-22T01:14:45;51.73;;;28.70;;
22697;SDS011;11516;51.612;7.510;2023-02-22T01:17:10;54.73;;;30.13;;
22697;SDS011;11516;51.612;7.510;2023-02-22T01:19:36;50.70;;;29.33;;
22697;SDS011;11516;51.612;7.510;2023-02-22T01:22:01;53.13;;;29.80;;
22697;SDS011;11516;51.612;7.510;2023-02-22T01:24:29;55.00;;;29.92;;
22697;SDS011;11516;51.612;7.510;2023-02-22T01:26:54;57.17;;;31.57;;
22697;SDS011;11516;51.612;7.510;2023-02-22T01:29:20;57.60;;;32.00;;
22697;SDS011;11516;51.612;7.510;2023-02-22T01:31:50;57.97;;;32.42;;
22697;SDS011;11516;51.612;7.510;2023-02-22T01:34:18;70.43;;;34.35;;
22697;SDS011;11516;51.612;7.510;2023-02-22T01:36:44;71.50;;;35.85;;
22697;SDS011;11516;51.612;7.510;2023-02-22T01:39:10;74.22;;;37.13;;
22697;SDS011;11516;51.612;7.510;2023-02-22T01:41:35;77.10;;;37.73;;
22697;SDS011;11516;51.612;7.510;2023-02-22T01:44:16;76.80;;;37.60;;
22697;SDS011;11516;51.612;7.510;2023-02-22T01:46:44;87.28;;;39.15;;
22697;SDS011;11516;51.612;7.510;2023-02-22T01:49:09;81.80;;;38.63;;
22697;SDS011;11516;51.612;7.510;2023-02-22T01:51:39;81.10;;;37.88;;
22697;SDS011;11516;51.612;7.510;2023-02-22T01:54:09;82.95;;;37.72;;
22697;SDS011;11516;51.612;7.510;2023-02-22T01:59:35;81.10;;;36.33;;
22697;SDS011;11516;51.612;7.510;2023-02-22T02:02:04;80.00;;;35.83;;
22697;SDS011;11516;51.612;7.510;2023-02-22T02:04:30;79.80;;;36.63;;
22697;SDS011;11516;51.612;7.510;2023-02-22T02:06:58;81.07;;;35.63;;
22697;SDS011;11516;51.612;7.510;2023-02-22T02:09:29;70.70;;;32.35;;
22697;SDS011;11516;51.612;7.510;2023-02-22T02:12:14;75.07;;;33.88;;
22697;SDS011;11516;51.612;7.510;2023-02-22T02:14:42;73.57;;;34.97;;
22697;SDS011;11516;51.612;7.510;2023-02-22T02:17:08;77.45;;;34.50;;
22697;SDS011;11516;51.612;7.510;2023-02-22T02:22:28;78.65;;;34.70;;
22697;SDS011;11516;51.612;7.510;2023-02-22T02:35:59;76.85;;;35.10;;
22697;SDS011;11516;51.612;7.510;2023-02-22T02:38:39;101.10;;;34.90;;
22697;SDS011;11516;51.612;7.510;2023-02-22T02:46:30;117.05;;;34.80;;
22697;SDS011;11516;51.612;7.510;2023-02-22T02:49:10;153.13;;;32.95;;
22697;SDS011;11516;51.612;7.510;2023-02-22T02:51:41;148.90;;;34.80;;
22697;SDS011;11516;51.612;7.510;2023-02-22T02:54:11;170.55;;;37.03;;
22697;SDS011;11516;51.612;7.510;2023-02-22T02:56:39;122.90;;;33.13;;
22697;SDS011;11516;51.612;7.510;2023-02-22T03:01:56;315.25;;;34.92;;
22697;SDS011;11516;51.612;7.510;2023-02-22T03:04:47;203.40;;;33.95;;
22697;SDS011;11516;51.612;7.510;2023-02-22T03:10:02;165.75;;;28.73;;
22697;SDS011;11516;51.612;7.510;2023-02-22T03:18:04;183.40;;;30.48;;
22697;SDS011;11516;51.612;7.510;2023-02-22T03:20:39;235.88;;;31.80;;
22697;SDS011;11516;51.612;7.510;2023-02-22T03:23:09;191.90;;;28.83;;
22697;SDS011;11516;51.612;7.510;2023-02-22T03:25:53;173.63;;;29.92;;
22697;SDS011;11516;51.612;7.510;2023-02-22T03:28:31;179.23;;;27.67;;
22697;SDS011;11516;51.612;7.510;2023-02-22T03:31:00;171.25;;;28.33;;
22697;SDS011;11516;51.612;7.510;2023-02-22T03:36:18;129.15;;;26.83;;
22697;SDS011;11516;51.612;7.510;2023-02-22T03:38:49;133.68;;;25.98;;
22697;SDS011;11516;51.612;7.510;2023-02-22T03:41:19;118.60;;;24.10;;
22697;SDS011;11516;51.612;7.510;2023-02-22T03:43:54;125.33;;;24.20;;
22697;SDS011;11516;51.612;7.510;2023-02-22T03:46:26;121.32;;;22.73;;
22697;SDS011;11516;51.612;7.510;2023-02-22T03:51:54;149.77;;;21.88;;
22697;SDS011;11516;51.612;7.510;2023-02-22T03:54:20;102.33;;;20.13;;
22697;SDS011;11516;51.612;7.510;2023-02-22T03:56:56;96.43;;;21.02;;
22697;SDS011;11516;51.612;7.510;2023-02-22T03:59:24;71.60;;;19.70;;
22697;SDS011;11516;51.612;7.510;2023-02-22T04:01:52;81.40;;;19.00;;
22697;SDS011;11516;51.612;7.510;2023-02-22T04:04:18;109.43;;;18.73;;
22697;SDS011;11516;51.612;7.510;2023-02-22T04:06:45;88.50;;;17.15;;
22697;SDS011;11516;51.612;7.510;2023-02-22T04:09:11;133.95;;;21.15;;
22697;SDS011;11516;51.612;7.510;2023-02-22T04:11:38;121.80;;;19.65;;
22697;SDS011;11516;51.612;7.510;2023-02-22T04:14:03;82.70;;;18.53;;
22697;SDS011;11516;51.612;7.510;2023-02-22T04:16:29;83.55;;;18.17;;
22697;SDS011;11516;51.612;7.510;2023-02-22T04:18:54;78.68;;;17.88;;
22697;SDS011;11516;51.612;7.510;2023-02-22T04:21:20;82.70;;;18.53;;
22697;SDS011;11516;51.612;7.510;2023-02-22T04:23:46;78.68;;;17.45;;
22697;SDS011;11516;51.612;7.510;2023-02-22T04:26:11;95.37;;;18.17;;
22697;SDS011;11516;51.612;7.510;2023-02-22T04:28:37;85.73;;;17.77;;
22697;SDS011;11516;51.612;7.510;2023-02-22T04:31:02;114.97;;;18.47;;
22697;SDS011;11516;51.612;7.510;2023-02-22T04:33:28;90.65;;;18.73;;
22697;SDS011;11516;51.612;7.510;2023-02-22T04:35:53;99.77;;;18.80;;
22697;SDS011;11516;51.612;7.510;2023-02-22T04:38:21;85.47;;;17.93;;
22697;SDS011;11516;51.612;7.510;2023-02-22T04:40:49;80.13;;;17.13;;
22697;SDS011;11516;51.612;7.510;2023-02-22T04:43:16;57.10;;;17.00;;
22697;SDS011;11516;51.612;7.510;2023-02-22T04:45:41;89.53;;;17.05;;
22697;SDS011;11516;51.612;7.510;2023-02-22T04:48:07;75.53;;;17.07;;
22697;SDS011;11516;51.612;7.510;2023-02-22T04:50:32;73.70;;;17.13;;
22697;SDS011;11516;51.612;7.510;2023-02-22T04:52:58;62.78;;;16.33;;
22697;SDS011;11516;51.612;7.510;2023-02-22T04:55:23;81.07;;;16.77;;
22697;SDS011;11516;51.612;7.510;2023-02-22T04:57:49;65.77;;;16.13;;
22697;SDS011;11516;51.612;7.510;2023-02-22T05:00:15;58.53;;;15.88;;
22697;SDS011;11516;51.612;7.510;2023-02-22T05:02:42;65.18;;;17.00;;
22697;SDS011;11516;51.612;7.510;2023-02-22T05:05:08;67.07;;;16.13;;
22697;SDS011;11516;51.612;7.510;2023-02-22T05:07:35;45.35;;;14.52;;
22697;SDS011;11516;51.612;7.510;2023-02-22T05:10:00;59.70;;;14.77;;
22697;SDS011;11516;51.612;7.510;2023-02-22T05:12:26;72.05;;;14.55;;
22697;SDS011;11516;51.612;7.510;2023-02-22T05:14:52;89.97;;;15.80;;
22697;SDS011;11516;51.612;7.510;2023-02-22T05:17:18;89.88;;;15.85;;
22697;SDS011;11516;51.612;7.510;2023-02-22T05:19:43;76.13;;;16.65;;
22697;SDS011;11516;51.612;7.510;2023-02-22T05:22:09;71.37;;;16.57;;
22697;SDS011;11516;51.612;7.510;2023-02-22T05:24:34;78.07;;;15.37;;
22697;SDS011;11516;51.612;7.510;2023-02-22T05:27:00;91.30;;;15.60;;
22697;SDS011;11516;51.612;7.510;2023-02-22T05:29:25;77.80;;;13.95;;
22697;SDS011;11516;51.612;7.510;2023-02-22T05:31:51;52.70;;;14.17;;
22697;SDS011;11516;51.612;7.510;2023-02-22T05:34:16;76.23;;;15.07;;
22697;SDS011;11516;51.612;7.510;2023-02-22T05:36:42;68.35;;;14.82;;
22697;SDS011;11516;51.612;7.510;2023-02-22T05:39:07;64.75;;;13.55;;
22697;SDS011;11516;51.612;7.510;2023-02-22T05:41:33;86.87;;;15.17;;
22697;SDS011;11516;51.612;7.510;2023-02-22T05:43:58;92.22;;;14.57;;
22697;SDS011;11516;51.612;7.510;2023-02-22T05:46:24;69.47;;;13.67;;
22697;SDS011;11516;51.612;7.510;2023-02-22T05:48:50;64.87;;;13.93;;
22697;SDS011;11516;51.612;7.510;2023-02-22T05:51:15;186.63;;;18.87;;
22697;SDS011;11516;51.612;7.510;2023-02-22T05:53:41;92.93;;;16.03;;
22697;SDS011;11516;51.612;7.510;2023-02-22T05:56:07;98.22;;;16.30;;
22697;SDS011;11516;51.612;7.510;2023-02-22T05:58:32;78.80;;;15.53;;
22697;SDS011;11516;51.612;7.510;2023-02-22T06:00:58;67.10;;;16.03;;
22697;SDS011;11516;51.612;7.510;2023-02-22T06:03:24;103.65;;;16.45;;
22697;SDS011;11516;51.612;7.510;2023-02-22T06:05:49;153.10;;;18.93;;
22697;SDS011;11516;51.612;7.510;2023-02-22T06:08:15;88.10;;;17.87;;
22697;SDS011;11516;51.612;7.510;2023-02-22T06:10:42;78.45;;;17.00;;
22697;SDS011;11516;51.612;7.510;2023-02-22T06:13:08;111.68;;;18.63;;
22697;SDS011;11516;51.612;7.510;2023-02-22T06:15:33;71.43;;;16.10;;
22697;SDS011;11516;51.612;7.510;2023-02-22T06:17:59;90.67;;;16.40;;
22697;SDS011;11516;51.612;7.510;2023-02-22T06:20:26;71.13;;;16.25;;
22697;SDS011;11516;51.612;7.510;2023-02-22T06:22:53;46.97;;;14.88;;
22697;SDS011;11516;51.612;7.510;2023-02-22T06:25:21;62.08;;;14.55;;
22697;SDS011;11516;51.612;7.510;2023-02-22T06:27:48;92.43;;;14.77;;
22697;SDS011;11516;51.612;7.510;2023-02-22T06:30:15;99.63;;;15.80;;
22697;SDS011;11516;51.612;7.510;2023-02-22T06:32:42;85.75;;;14.68;;
22697;SDS011;11516;51.612;7.510;2023-02-22T06:35:07;107.72;;;15.05;;
22697;SDS011;11516;51.612;7.510;2023-02-22T06:37:33;118.32;;;16.48;;
22697;SDS011;11516;51.612;7.510;2023-02-22T06:39:59;117.63;;;15.97;;
22697;SDS011;11516;51.612;7.510;2023-02-22T06:42:24;58.57;;;12.73;;
22697;SDS011;11516;51.612;7.510;2023-02-22T06:44:50;69.03;;;13.00;;
22697;SDS011;11516;51.612;7.510;2023-02-22T06:47:15;68.43;;;11.23;;
22697;SDS011;11516;51.612;7.510;2023-02-22T06:49:41;69.47;;;10.23;;
22697;SDS011;11516;51.612;7.510;2023-02-22T06:52:07;87.63;;;10.73;;
22697;SDS011;11516;51.612;7.510;2023-02-22T06:54:34;97.23;;;12.23;;
22697;SDS011;11516;51.612;7.510;2023-02-22T06:57:00;51.00;;;10.48;;
22697;SDS011;11516;51.612;7.510;2023-02-22T06:59:26;70.47;;;10.37;;
22697;SDS011;11516;51.612;7.510;2023-02-22T07:01:52;49.33;;;10.07;;
22697;SDS011;11516;51.612;7.510;2023-02-22T07:04:18;42.22;;;9.70;;
22697;SDS011;11516;51.612;7.510;2023-02-22T07:06:47;42.17;;;9.37;;
22697;SDS011;11516;51.612;7.510;2023-02-22T07:09:14;48.45;;;9.00;;
22697;SDS011;11516;51.612;7.510;2023-02-22T07:11:41;61.65;;;9.38;;
22697;SDS011;11516;51.612;7.510;2023-02-22T07:14:07;103.07;;;10.88;;
22697;SDS011;11516;51.612;7.510;2023-02-22T07:16:33;68.10;;;10.35;;
22697;SDS011;11516;51.612;7.510;2023-02-22T07:18:59;52.20;;;9.63;;
22697;SDS011;11516;51.612;7.510;2023-02-22T07:21:24;44.17;;;9.68;;
22697;SDS011;11516;51.612;7.510;2023-02-22T07:23:52;44.50;;;9.82;;
22697;SDS011;11516;51.612;7.510;2023-02-22T07:26:18;51.72;;;10.18;;
22697;SDS011;11516;51.612;7.510;2023-02-22T07:28:45;65.00;;;11.67;;
22697;SDS011;11516;51.612;7.510;2023-02-22T07:31:10;38.22;;;9.98;;
22697;SDS011;11516;51.612;7.510;2023-02-22T07:33:36;39.87;;;10.50;;
22697;SDS011;11516;51.612;7.510;2023-02-22T07:36:01;30.77;;;10.10;;
22697;SDS011;11516;51.612;7.510;2023-02-22T07:38:27;84.47;;;12.23;;
22697;SDS011;11516;51.612;7.510;2023-02-22T07:40:53;60.70;;;11.63;;
22697;SDS011;11516;51.612;7.510;2023-02-22T07:43:22;96.78;;;12.90;;
22697;SDS011;11516;51.612;7.510;2023-02-22T07:45:49;40.72;;;11.40;;
22697;SDS011;11516;51.612;7.510;2023-02-22T07:48:16;23.02;;;11.35;;
22697;SDS011;11516;51.612;7.510;2023-02-22T07:50:43;30.00;;;11.30;;
22697;SDS011;11516;51.612;7.510;2023-02-22T07:53:15;24.50;;;10.98;;
22697;SDS011;11516;51.612;7.510;2023-02-22T07:55:45;35.63;;;11.88;;
22697;SDS011;11516;51.612;7.510;2023-02-22T07:58:14;44.17;;;11.33;;
22697;SDS011;11516;51.612;7.510;2023-02-22T08:00:41;39.45;;;11.15;;
22697;SDS011;11516;51.612;7.510;2023-02-22T08:03:08;19.73;;;11.60;;
22697;SDS011;11516;51.612;7.510;2023-02-22T08:05:36;25.27;;;12.13;;
22697;SDS011;11516;51.612;7.510;2023-02-22T08:08:03;28.65;;;11.30;;
22697;SDS011;11516;51.612;7.510;2023-02-22T08:10:30;19.20;;;12.30;;
22697;SDS011;11516;51.612;7.510;2023-02-22T08:12:55;21.80;;;12.38;;
22697;SDS011;11516;51.612;7.510;2023-02-22T08:15:23;23.02;;;12.90;;
22697;SDS011;11516;51.612;7.510;2023-02-22T08:17:52;29.70;;;12.75;;
22697;SDS011;11516;51.612;7.510;2023-02-22T08:20:18;29.27;;;13.55;;
22697;SDS011;11516;51.612;7.510;2023-02-22T08:22:43;41.22;;;14.07;;
22697;SDS011;11516;51.612;7.510;2023-02-22T08:25:10;46.72;;;14.65;;
22697;SDS011;11516;51.612;7.510;2023-02-22T08:27:36;23.33;;;13.63;;
22697;SDS011;11516;51.612;7.510;2023-02-22T08:30:02;68.38;;;15.35;;
22697;SDS011;11516;51.612;7.510;2023-02-22T08:32:28;36.45;;;13.63;;
22697;SDS011;11516;51.612;7.510;2023-02-22T08:34:53;24.77;;;13.53;;
22697;SDS011;11516;51.612;7.510;2023-02-22T08:37:19;20.23;;;13.68;;
22697;SDS011;11516;51.612;7.510;2023-02-22T08:39:45;21.05;;;13.45;;
22697;SDS011;11516;51.612;7.510;2023-02-22T08:42:11;19.83;;;13.67;;
22697;SDS011;11516;51.612;7.510;2023-02-22T08:44:37;21.65;;;13.80;;
22697;SDS011;11516;51.612;7.510;2023-02-22T08:47:04;31.60;;;14.05;;
22697;SDS011;11516;51.612;7.510;2023-02-22T08:49:29;22.77;;;13.60;;
22697;SDS011;11516;51.612;7.510;2023-02-22T08:51:55;24.23;;;13.73;;
22697;SDS011;11516;51.612;7.510;2023-02-22T08:54:20;23.67;;;14.32;;
22697;SDS011;11516;51.612;7.510;2023-02-22T08:56:47;19.73;;;14.70;;
22697;SDS011;11516;51.612;7.510;2023-02-22T08:59:13;20.70;;;13.77;;
22697;SDS011;11516;51.612;7.510;2023-02-22T09:01:39;19.20;;;13.65;;
22697;SDS011;11516;51.612;7.510;2023-02-22T09:04:04;19.90;;;13.63;;
22697;SDS011;11516;51.612;7.510;2023-02-22T09:06:30;19.33;;;14.05;;
22697;SDS011;11516;51.612;7.510;2023-02-22T09:08:55;21.00;;;14.30;;
22697;SDS011;11516;51.612;7.510;2023-02-22T09:11:21;18.73;;;14.73;;
22697;SDS011;11516;51.612;7.510;2023-02-22T09:13:46;18.33;;;14.30;;
22697;SDS011;11516;51.612;7.510;2023-02-22T09:16:12;19.73;;;14.85;;
22697;SDS011;11516;51.612;7.510;2023-02-22T09:18:38;23.33;;;15.80;;
22697;SDS011;11516;51.612;7.510;2023-02-22T09:21:03;19.30;;;14.67;;
22697;SDS011;11516;51.612;7.510;2023-02-22T09:23:29;20.92;;;14.40;;
22697;SDS011;11516;51.612;7.510;2023-02-22T09:25:55;19.77;;;14.80;;
22697;SDS011;11516;51.612;7.510;2023-02-22T09:28:21;19.40;;;14.73;;
22697;SDS011;11516;51.612;7.510;2023-02-22T09:30:46;18.90;;;14.43;;
22697;SDS011;11516;51.612;7.510;2023-02-22T09:33:16;19.85;;;14.60;;
22697;SDS011;11516;51.612;7.510;2023-02-22T09:35:43;20.17;;;14.60;;
22697;SDS011;11516;51.612;7.510;2023-02-22T09:38:14;17.75;;;13.80;;
22697;SDS011;11516;51.612;7.510;2023-02-22T09:40:44;19.33;;;14.65;;
22697;SDS011;11516;51.612;7.510;2023-02-22T09:43:36;19.58;;;14.32;;
22697;SDS011;11516;51.612;7.510;2023-02-22T09:52:00;18.50;;;14.50;;
22697;SDS011;11516;51.612;7.510;2023-02-22T09:57:27;19.33;;;14.18;;
22697;SDS011;11516;51.612;7.510;2023-02-22T10:02:38;19.40;;;14.38;;
22697;SDS011;11516;51.612;7.510;2023-02-22T10:05:18;23.00;;;14.25;;
22697;SDS011;11516;51.612;7.510;2023-02-22T10:07:58;20.45;;;13.70;;
22697;SDS011;11516;51.612;7.510;2023-02-22T10:10:31;22.02;;;13.88;;
22697;SDS011;11516;51.612;7.510;2023-02-22T10:13:15;19.42;;;14.02;;
22697;SDS011;11516;51.612;7.510;2023-02-22T10:24:06;16.65;;;13.38;;
22697;SDS011;11516;51.612;7.510;2023-02-22T10:26:41;17.45;;;12.80;;
22697;SDS011;11516;51.612;7.510;2023-02-22T10:29:19;16.38;;;12.10;;
22697;SDS011;11516;51.612;7.510;2023-02-22T10:32:02;16.25;;;12.55;;
22697;SDS011;11516;51.612;7.510;2023-02-22T10:34:30;15.57;;;12.10;;
22697;SDS011;11516;51.612;7.510;2023-02-22T10:37:20;16.45;;;12.02;;
22697;SDS011;11516;51.612;7.510;2023-02-22T10:39:49;15.93;;;12.20;;
22697;SDS011;11516;51.612;7.510;2023-02-22T10:42:21;15.90;;;12.15;;
22697;SDS011;11516;51.612;7.510;2023-02-22T10:44:50;16.88;;;11.48;;
22697;SDS011;11516;51.612;7.510;2023-02-22T10:47:16;14.10;;;11.15;;
22697;SDS011;11516;51.612;7.510;2023-02-22T10:49:51;16.63;;;11.40;;
22697;SDS011;11516;51.612;7.510;2023-02-22T10:52:24;15.02;;;11.35;;
22697;SDS011;11516;51.612;7.510;2023-02-22T10:54:56;17.38;;;12.13;;
22697;SDS011;11516;51.612;7.510;2023-02-22T10:57:30;15.13;;;11.32;;
22697;SDS011;11516;51.612;7.510;2023-02-22T11:00:19;14.77;;;11.38;;
22697;SDS011;11516;51.612;7.510;2023-02-22T11:02:57;21.50;;;11.75;;
22697;SDS011;11516;51.612;7.510;2023-02-22T11:05:26;26.73;;;18.23;;
22697;SDS011;11516;51.612;7.510;2023-02-22T11:08:13;15.98;;;11.73;;
22697;SDS011;11516;51.612;7.510;2023-02-22T11:10:45;16.02;;;11.43;;
22697;SDS011;11516;51.612;7.510;2023-02-22T11:15:57;12.77;;;10.23;;
22697;SDS011;11516;51.612;7.510;2023-02-22T11:18:25;16.93;;;11.70;;
22697;SDS011;11516;51.612;7.510;2023-02-22T11:21:03;13.45;;;10.25;;
22697;SDS011;11516;51.612;7.510;2023-02-22T11:23:31;14.43;;;11.27;;
22697;SDS011;11516;51.612;7.510;2023-02-22T11:26:00;19.73;;;12.30;;
22697;SDS011;11516;51.612;7.510;2023-02-22T11:28:29;16.60;;;12.30;;
22697;SDS011;11516;51.612;7.510;2023-02-22T11:30:57;21.42;;;14.38;;
22697;SDS011;11516;51.612;7.510;2023-02-22T11:33:35;17.02;;;11.30;;
22697;SDS011;11516;51.612;7.510;2023-02-22T11:36:02;18.13;;;13.87;;
22697;SDS011;11516;51.612;7.510;2023-02-22T11:38:34;25.77;;;15.20;;
22697;SDS011;11516;51.612;7.510;2023-02-22T11:43:50;17.23;;;10.63;;
22697;SDS011;11516;51.612;7.510;2023-02-22T11:46:22;13.20;;;9.63;;
22697;SDS011;11516;51.612;7.510;2023-02-22T11:48:59;13.33;;;9.80;;
22697;SDS011;11516;51.612;7.510;2023-02-22T11:57:09;14.13;;;9.65;;
22697;SDS011;11516;51.612;7.510;2023-02-22T12:03:06;13.67;;;9.00;;
22697;SDS011;11516;51.612;7.510;2023-02-22T12:05:49;12.03;;;8.40;;
22697;SDS011;11516;51.612;7.510;2023-02-22T12:11:16;13.20;;;8.68;;
22697;SDS011;11516;51.612;7.510;2023-02-22T12:19:26;12.82;;;8.32;;
22697;SDS011;11516;51.612;7.510;2023-02-22T12:22:14;13.60;;;8.82;;
22697;SDS011;11516;51.612;7.510;2023-02-22T12:24:52;14.07;;;7.85;;
22697;SDS011;11516;51.612;7.510;2023-02-22T12:27:28;11.73;;;7.80;;
22697;SDS011;11516;51.612;7.510;2023-02-22T12:30:05;10.30;;;7.57;;
22697;SDS011;11516;51.612;7.510;2023-02-22T12:43:03;11.13;;;6.57;;
22697;SDS011;11516;51.612;7.510;2023-02-22T12:45:46;7.60;;;6.10;;
22697;SDS011;11516;51.612;7.510;2023-02-22T12:48:25;8.52;;;6.03;;
22697;SDS011;11516;51.612;7.510;2023-02-22T12:53:58;8.77;;;5.65;;
22697;SDS011;11516;51.612;7.510;2023-02-22T12:56:40;9.45;;;5.43;;
22697;SDS011;11516;51.612;7.510;2023-02-22T13:01:52;8.48;;;5.47;;
22697;SDS011;11516;51.612;7.510;2023-02-22T13:04:22;8.27;;;5.07;;
22697;SDS011;11516;51.612;7.510;2023-02-22T13:12:01;12.10;;;5.25;;
22697;SDS011;11516;51.612;7.510;2023-02-22T13:26:00;5.80;;;3.78;;
22697;SDS011;11516;51.612;7.510;2023-02-22T13:44:15;8.10;;;4.97;;
22697;SDS011;11516;51.612;7.510;2023-02-22T13:49:40;16.20;;;6.10;;
22697;SDS011;11516;51.612;7.510;2023-02-22T13:52:30;10.45;;;5.25;;
22697;SDS011;11516;51.612;7.510;2023-02-22T13:55:02;8.60;;;4.77;;
22697;SDS011;11516;51.612;7.510;2023-02-22T13:57:38;17.13;;;7.78;;
22697;SDS011;11516;51.612;7.510;2023-02-22T14:05:35;13.55;;;6.47;;
22697;SDS011;11516;51.612;7.510;2023-02-22T14:08:03;14.82;;;8.02;;
22697;SDS011;11516;51.612;7.510;2023-02-22T14:10:34;9.55;;;5.50;;
22697;SDS011;11516;51.612;7.510;2023-02-22T14:13:04;23.27;;;11.52;;
22697;SDS011;11516;51.612;7.510;2023-02-22T14:15:30;10.57;;;5.72;;
22697;SDS011;11516;51.612;7.510;2023-02-22T14:20:26;13.23;;;7.85;;
22697;SDS011;11516;51.612;7.510;2023-02-22T14:25:56;8.20;;;5.53;;
22697;SDS011;11516;51.612;7.510;2023-02-22T14:28:40;7.93;;;4.25;;
22697;SDS011;11516;51.612;7.510;2023-02-22T14:31:07;5.45;;;3.83;;
22697;SDS011;11516;51.612;7.510;2023-02-22T14:36:20;6.20;;;3.70;;
22697;SDS011;11516;51.612;7.510;2023-02-22T14:38:50;8.27;;;4.07;;
22697;SDS011;11516;51.612;7.510;2023-02-22T14:41:18;7.18;;;4.18;;
22697;SDS011;11516;51.612;7.510;2023-02-22T14:43:50;8.68;;;4.00;;
22697;SDS011;11516;51.612;7.510;2023-02-22T14:46:21;7.53;;;4.25;;
22697;SDS011;11516;51.612;7.510;2023-02-22T14:48:50;7.30;;;4.28;;
22697;SDS011;11516;51.612;7.510;2023-02-22T14:51:34;13.65;;;4.95;;
22697;SDS011;11516;51.612;7.510;2023-02-22T14:54:11;10.80;;;5.63;;
22697;SDS011;11516;51.612;7.510;2023-02-22T15:00:00;14.65;;;5.88;;
22697;SDS011;11516;51.612;7.510;2023-02-22T15:02:47;7.43;;;4.22;;
22697;SDS011;11516;51.612;7.510;2023-02-22T15:05:16;6.15;;;4.45;;
22697;SDS011;11516;51.612;7.510;2023-02-22T15:07:50;12.55;;;7.28;;
22697;SDS011;11516;51.612;7.510;2023-02-22T15:12:52;16.40;;;8.10;;
22697;SDS011;11516;51.612;7.510;2023-02-22T15:15:39;20.02;;;12.10;;
22697;SDS011;11516;51.612;7.510;2023-02-22T15:18:23;12.68;;;7.55;;
22697;SDS011;11516;51.612;7.510;2023-02-22T15:20:55;11.52;;;8.00;;
22697;SDS011;11516;51.612;7.510;2023-02-22T15:23:23;13.00;;;8.10;;
22697;SDS011;11516;51.612;7.510;2023-02-22T15:25:54;19.42;;;12.30;;
22697;SDS011;11516;51.612;7.510;2023-02-22T15:28:20;13.07;;;7.73;;
22697;SDS011;11516;51.612;7.510;2023-02-22T15:30:48;11.73;;;7.07;;
22697;SDS011;11516;51.612;7.510;2023-02-22T15:33:17;9.23;;;5.80;;
22697;SDS011;11516;51.612;7.510;2023-02-22T15:35:53;9.30;;;5.50;;
22697;SDS011;11516;51.612;7.510;2023-02-22T15:38:20;10.18;;;5.47;;
22697;SDS011;11516;51.612;7.510;2023-02-22T15:41:26;10.57;;;5.68;;
22697;SDS011;11516;51.612;7.510;2023-02-22T15:43:57;12.27;;;6.97;;
22697;SDS011;11516;51.612;7.510;2023-02-22T15:46:28;10.47;;;7.10;;
22697;SDS011;11516;51.612;7.510;2023-02-22T15:49:03;9.60;;;5.88;;
22697;SDS011;11516;51.612;7.510;2023-02-22T15:51:43;8.83;;;5.03;;
22697;SDS011;11516;51.612;7.510;2023-02-22T15:54:13;9.20;;;5.00;;
22697;SDS011;11516;51.612;7.510;2023-02-22T15:56:40;9.13;;;5.03;;
22697;SDS011;11516;51.612;7.510;2023-02-22T15:59:19;8.18;;;4.85;;
22697;SDS011;11516;51.612;7.510;2023-02-22T16:01:47;8.15;;;4.50;;
22697;SDS011;11516;51.612;7.510;2023-02-22T16:04:16;8.80;;;5.30;;
22697;SDS011;11516;51.612;7.510;2023-02-22T16:06:44;13.32;;;6.22;;
22697;SDS011;11516;51.612;7.510;2023-02-22T16:09:13;14.63;;;6.90;;
22697;SDS011;11516;51.612;7.510;2023-02-22T16:11:42;9.48;;;5.15;;
22697;SDS011;11516;51.612;7.510;2023-02-22T16:14:23;11.73;;;6.50;;
22697;SDS011;11516;51.612;7.510;2023-02-22T16:17:10;10.45;;;7.03;;
22697;SDS011;11516;51.612;7.510;2023-02-22T16:19:48;11.43;;;6.47;;
22697;SDS011;11516;51.612;7.510;2023-02-22T16:22:27;11.27;;;5.78;;
22697;SDS011;11516;51.612;7.510;2023-02-22T16:27:49;9.82;;;6.00;;
22697;SDS011;11516;51.612;7.510;2023-02-22T16:32:45;9.00;;;5.18;;
22697;SDS011;11516;51.612;7.510;2023-02-22T16:35:12;10.57;;;5.43;;
22697;SDS011;11516;51.612;7.510;2023-02-22T16:37:47;12.43;;;6.25;;
22697;SDS011;11516;51.612;7.510;2023-02-22T16:40:58;11.68;;;6.00;;
22697;SDS011;11516;51.612;7.510;2023-02-22T16:43:04;10.15;;;5.78;;
22697;SDS011;11516;51.612;7.510;2023-02-22T16:45:32;9.55;;;5.28;;
22697;SDS011;11516;51.612;7.510;2023-02-22T16:47:58;11.73;;;5.95;;
22697;SDS011;11516;51.612;7.510;2023-02-22T16:50:24;12.00;;;6.00;;
22697;SDS011;11516;51.612;7.510;2023-02-22T16:52:51;15.43;;;6.45;;
22697;SDS011;11516;51.612;7.510;2023-02-22T16:55:19;10.77;;;6.07;;
22697;SDS011;11516;51.612;7.510;2023-02-22T16:57:45;16.10;;;7.88;;
22697;SDS011;11516;51.612;7.510;2023-02-22T17:00:17;16.75;;;9.15;;
22697;SDS011;11516;51.612;7.510;2023-02-22T17:02:54;15.15;;;7.93;;
22697;SDS011;11516;51.612;7.510;2023-02-22T17:05:21;10.27;;;6.80;;
22697;SDS011;11516;51.612;7.510;2023-02-22T17:07:46;12.77;;;7.15;;
22697;SDS011;11516;51.612;7.510;2023-02-22T17:10:15;11.13;;;7.40;;
22697;SDS011;11516;51.612;7.510;2023-02-22T17:12:45;10.77;;;6.47;;
22697;SDS011;11516;51.612;7.510;2023-02-22T17:15:15;12.95;;;7.40;;
22697;SDS011;11516;51.612;7.510;2023-02-22T17:17:46;12.35;;;7.50;;